Time;durP1;ratioP1;P1;durP2;ratioP2;P2;SDS_P1;SDS_P2;PMS_P1;PMS_P2;Temp;Humidity;BMP_temperature;BMP_pressure;BME280_temperature;BME280_humidity;BME280_pressure;Samples;Min_cycle;Max_cycle;Signal;HPM_P1;HPM_P2
2022/12/27 00:01:25;;;;;;;7.10;5.50;;;;;;;7.72;90.66;96555.09;105515;1295;44342;-83
2022/12/27 00:03:57;;;;;;;5.80;4.40;;;;;;;7.72;90.59;96553.30;105739;1295;25484;-83
2022/12/27 00:06:29;;;;;;;6.90;4.70;;;;;;;7.69;90.58;96552.20;105614;1295;22546;-83
2022/12/27 00:09:01;;;;;;;7.50;4.80;;;;;;;7.68;90.74;96552.46;105755;1303;24407;-83
2022/12/27 00:11:32;;;;;;;6.20;3.80;;;;;;;7.69;90.75;96556.68;105572;1297;51767;-83
2022/12/27 00:14:09;;;;;;;6.40;4.80;;;;;;;7.69;90.72;96554.89;105606;1279;22472;-83
2022/12/27 00:16:42;;;;;;;7.00;5.00;;;;;;;7.67;90.74;96556.52;105695;1300;22980;-83
2022/12/27 00:19:13;;;;;;;5.80;4.40;;;;;;;7.69;90.75;96552.45;105694;1295;22662;-84
2022/12/27 00:21:44;;;;;;;6.30;4.20;;;;;;;7.72;90.75;96555.79;105497;1295;53188;-82
2022/12/27 00:24:18;;;;;;;6.00;4.80;;;;;;;7.73;90.69;96560.11;105617;1288;22612;-84
2022/12/27 00:26:49;;;;;;;6.60;4.90;;;;;;;7.77;90.68;96557.30;105551;1303;22487;-84
2022/12/27 00:29:22;;;;;;;7.20;4.80;;;;;;;7.76;90.56;96555.70;105550;1303;22471;-83
2022/12/27 00:31:54;;;;;;;6.60;4.30;;;;;;;7.73;90.74;96549.09;105562;1303;25368;-82
2022/12/27 00:34:25;;;;;;;9.40;5.30;;;;;;;7.72;90.78;96552.20;105562;1303;24250;-84
2022/12/27 00:36:56;;;;;;;5.90;4.10;;;;;;;7.71;90.74;96540.06;105568;1289;22469;-82
2022/12/27 00:39:27;;;;;;;6.70;5.00;;;;;;;7.72;90.78;96539.80;105560;1303;23858;-82
2022/12/27 00:41:58;;;;;;;6.30;4.60;;;;;;;7.72;90.76;96539.42;105530;1303;23386;-84
2022/12/27 00:44:29;;;;;;;6.70;5.00;;;;;;;7.69;90.75;96532.36;105562;1303;25454;-85
2022/12/27 00:47:01;;;;;;;8.00;5.50;;;;;;;7.69;90.77;96528.92;105620;1295;22513;-86
2022/12/27 00:49:35;;;;;;;6.70;5.10;;;;;;;7.71;90.80;96525.02;105517;1286;2257714;-83
2022/12/27 00:52:07;;;;;;;5.30;3.60;;;;;;;7.65;90.77;96517.32;105563;1288;70778;-84
2022/12/27 00:54:40;;;;;;;6.30;4.20;;;;;;;7.64;90.84;96513.41;105688;1303;22460;-85
2022/12/27 00:57:11;;;;;;;6.10;3.90;;;;;;;7.64;90.88;96505.13;105759;1288;26419;-83
2022/12/27 00:59:43;;;;;;;6.90;4.40;;;;;;;7.63;90.88;96505.76;105513;1295;39507;-85
2022/12/27 01:02:14;;;;;;;5.50;3.90;;;;;;;7.64;90.72;96497.05;105640;1282;77413;-82
2022/12/27 01:04:46;;;;;;;4.30;3.30;;;;;;;7.67;90.56;96485.55;105599;1284;22480;-83
2022/12/27 01:07:17;;;;;;;6.10;4.50;;;;;;;7.67;90.40;96491.09;105706;1302;26397;-83
2022/12/27 01:09:48;;;;;;;5.60;3.30;;;;;;;7.67;90.39;96484.39;105530;1298;95739;-83
2022/12/27 01:12:20;;;;;;;4.70;3.00;;;;;;;7.68;90.34;96494.58;105650;1302;22470;-82
2022/12/27 01:14:51;;;;;;;4.60;2.90;;;;;;;7.68;90.20;96497.20;105701;1288;22473;-83
2022/12/27 01:17:23;;;;;;;7.00;4.50;;;;;;;7.69;89.95;96504.49;105742;1292;22462;-84
2022/12/27 01:19:54;;;;;;;4.40;3.30;;;;;;;7.70;89.96;96505.11;105589;1279;72422;-83
2022/12/27 01:22:26;;;;;;;5.70;4.10;;;;;;;7.68;89.85;96498.16;105552;1303;22468;-82
2022/12/27 01:24:57;;;;;;;4.40;3.50;;;;;;;7.72;89.67;96499.37;105558;1303;23325;-81
2022/12/27 01:27:29;;;;;;;3.70;2.60;;;;;;;7.75;89.45;96496.70;105606;1303;22515;-82
2022/12/27 01:30:00;;;;;;;4.70;3.30;;;;;;;7.75;89.70;96495.29;105490;1303;46171;-82
2022/12/27 01:32:35;;;;;;;5.70;3.90;;;;;;;7.78;89.77;96493.33;105548;1291;22486;-82
2022/12/27 01:35:07;;;;;;;5.10;3.50;;;;;;;7.74;89.83;96494.85;105540;1295;22645;-81
2022/12/27 01:37:38;;;;;;;4.90;3.50;;;;;;;7.68;89.99;96499.64;105575;1295;22478;-81
2022/12/27 01:40:13;;;;;;;5.60;3.60;;;;;;;7.60;90.26;96489.61;105394;1293;98201;-83
2022/12/27 01:42:54;;;;;;;5.80;3.70;;;;;;;7.59;90.70;96490.07;105581;1303;22520;-83
2022/12/27 01:45:27;;;;;;;4.60;3.30;;;;;;;7.52;90.72;96496.77;105580;1303;22474;-84
2022/12/27 01:48:04;;;;;;;5.10;3.60;;;;;;;7.52;91.17;96491.70;105667;1295;22482;-83
2022/12/27 01:50:39;;;;;;;6.00;3.90;;;;;;;7.58;91.29;96485.68;105542;1303;24875;-83
2022/12/27 01:53:18;;;;;;;4.90;3.30;;;;;;;7.59;91.31;96478.62;105576;1288;24005;-82
2022/12/27 01:55:56;;;;;;;6.40;3.50;;;;;;;7.62;91.21;96476.11;105582;1279;24291;-82
2022/12/27 01:58:34;;;;;;;5.70;3.50;;;;;;;7.63;91.28;96466.45;105588;1278;25498;-82
2022/12/27 02:01:14;;;;;;;5.20;3.80;;;;;;;7.63;91.09;96466.51;105521;1289;43526;-83
2022/12/27 02:03:48;;;;;;;4.70;3.70;;;;;;;7.66;91.10;96461.59;105576;1288;26856;-83
2022/12/27 02:06:25;;;;;;;5.00;3.20;;;;;;;7.63;90.97;96455.33;105632;1303;22460;-84
2022/12/27 02:09:09;;;;;;;3.70;2.20;;;;;;;7.61;90.93;96451.95;105669;1297;22513;-84
2022/12/27 02:11:52;;;;;;;4.30;2.90;;;;;;;7.64;90.97;96442.34;105432;1298;99794;-83
2022/12/27 02:14:28;;;;;;;3.40;2.40;;;;;;;7.65;90.94;96437.48;105582;1301;25578;-82
2022/12/27 02:17:05;;;;;;;4.50;2.50;;;;;;;7.77;90.37;96429.04;105604;1289;22509;-84
2022/12/27 02:19:54;;;;;;;3.10;2.10;;;;;;;7.80;90.07;96434.73;105634;1288;24303;-82
2022/12/27 02:26:20;;;;;;;2.10;1.50;;;;;;;7.97;88.67;96421.73;105443;1294;25545;-83
2022/12/27 02:29:08;;;;;;;3.90;2.60;;;;;;;8.02;88.25;96452.98;105548;1303;22508;-81
2022/12/27 02:31:48;;;;;;;3.10;2.30;;;;;;;8.03;87.79;96450.47;105664;1297;22549;-82
2022/12/27 02:34:23;;;;;;;4.30;1.80;;;;;;;8.03;87.58;96464.25;105769;1302;24297;-83
2022/12/27 02:36:59;;;;;;;1.80;1.50;;;;;;;8.03;87.39;96461.39;105566;1298;23968;-83
2022/12/27 02:39:34;;;;;;;1.60;1.40;;;;;;;8.05;87.20;96461.44;105551;1289;22534;-83
2022/12/27 02:53:54;;;;;;;4.30;1.30;;;;;;;8.10;85.90;96462.70;105643;1300;22507;-83
2022/12/27 03:03:19;;;;;;;3.50;1.50;;;;;;;8.00;86.10;96464.17;105770;1287;23814;-83
2022/12/27 03:08:53;;;;;;;2.40;1.30;;;;;;;8.09;85.57;96478.55;105781;1285;22528;-83
2022/12/27 03:17:23;;;;;;;1.90;1.20;;;;;;;8.19;84.96;96504.73;105777;1284;22507;-81
2022/12/27 03:25:44;;;;;;;1.80;1.30;;;;;;;8.17;85.10;96504.20;105736;1282;23767;-84
2022/12/27 03:34:34;;;;;;;2.00;1.20;;;;;;;8.13;85.19;96516.08;105506;1289;24232;-85
2022/12/27 03:40:07;;;;;;;1.90;1.20;;;;;;;8.16;85.14;96525.21;104171;1279;2068356;-85
2022/12/27 03:48:32;;;;;;;1.10;0.60;;;;;;;8.11;85.01;96526.91;105788;1279;23945;-82
2022/12/27 03:51:07;;;;;;;1.90;1.60;;;;;;;8.13;84.86;96531.51;105689;1279;24968;-83
2022/12/27 03:53:42;;;;;;;1.30;0.90;;;;;;;8.13;84.78;96532.55;105684;1292;23520;-81
2022/12/27 03:56:13;;;;;;;5.80;1.90;;;;;;;8.13;84.54;96538.58;105595;1295;22544;-81
2022/12/27 03:58:44;;;;;;;1.60;1.20;;;;;;;8.11;84.65;96542.86;105600;1294;22603;-83
2022/12/27 04:01:15;;;;;;;2.60;1.20;;;;;;;8.08;85.32;96551.20;105539;1295;22494;-82
2022/12/27 04:03:50;;;;;;;1.70;0.80;;;;;;;7.98;86.21;96562.34;105570;1296;22545;-83
2022/12/27 04:06:21;;;;;;;1.50;1.20;;;;;;;7.87;87.28;96559.95;105585;1288;25424;-83
2022/12/27 04:37:00;;;;;;;1.80;1.40;;;;;;;6.98;93.38;96610.14;105749;1291;22471;-81
2022/12/27 04:39:31;;;;;;;2.80;1.10;;;;;;;6.93;93.48;96613.55;105684;1303;24036;-80
2022/12/27 04:56:18;;;;;;;0.60;0.60;;;;;;;6.76;94.83;96643.10;105644;1304;22475;-81
2022/12/27 05:04:23;;;;;;;1.50;1.00;;;;;;;6.65;94.33;96619.63;105585;1303;22581;-81
2022/12/27 05:06:55;;;;;;;1.40;0.90;;;;;;;6.56;94.27;96616.50;105638;1296;22464;-80
2022/12/27 05:15:03;;;;;;;1.60;0.90;;;;;;;6.36;94.25;96643.16;105699;1303;23961;-83
2022/12/27 05:17:34;;;;;;;1.00;0.70;;;;;;;6.35;94.37;96640.84;105686;1303;22468;-83
2022/12/27 05:20:07;;;;;;;1.50;0.90;;;;;;;6.38;94.45;96642.05;102816;1303;2031890;-82
2022/12/27 05:25:37;;;;;;;2.40;1.30;;;;;;;6.39;94.62;96649.02;105551;1290;22471;-82
2022/12/27 05:28:11;;;;;;;2.60;1.30;;;;;;;6.40;94.47;96648.13;105599;1303;25219;-83
2022/12/27 05:30:44;;;;;;;1.90;1.10;;;;;;;6.40;94.56;96639.80;105493;1303;33527;-82
2022/12/27 05:33:15;;;;;;;4.00;1.40;;;;;;;6.42;94.72;96652.25;105600;1300;22458;-81
2022/12/27 05:35:49;;;;;;;2.70;1.60;;;;;;;6.43;94.61;96661.41;105685;1303;22562;-82
2022/12/27 05:38:20;;;;;;;1.10;1.00;;;;;;;6.44;94.65;96661.21;105591;1303;22515;-81
2022/12/27 05:40:51;;;;;;;1.10;1.00;;;;;;;6.43;94.66;96658.36;102683;1298;2031465;-81
2022/12/27 05:43:22;;;;;;;1.20;0.80;;;;;;;6.46;94.61;96673.82;105590;1285;25892;-81
2022/12/27 05:45:56;;;;;;;1.00;0.60;;;;;;;6.45;94.97;96695.88;105594;1303;22528;-82
2022/12/27 05:48:30;;;;;;;0.50;0.40;;;;;;;6.42;94.77;96737.09;105642;1292;26527;-84
2022/12/27 05:51:06;;;;;;;1.00;0.40;;;;;;;5.98;91.78;96731.29;102364;1297;4330867;-83
2022/12/27 05:53:41;;;;;;;1.10;0.40;;;;;;;5.49;91.37;96765.88;105596;1295;22581;-83
2022/12/27 05:56:18;;;;;;;0.40;0.20;;;;;;;5.23;91.73;96787.33;105605;1303;26401;-82
2022/12/27 05:58:58;;;;;;;0.10;0.10;;;;;;;5.06;91.74;96777.54;105594;1294;22613;-83
2022/12/27 06:01:35;;;;;;;0.10;0.10;;;;;;;4.84;91.59;96802.23;96076;1302;5451695;-85
2022/12/27 06:04:16;;;;;;;0.10;0.10;;;;;;;4.60;91.75;96801.55;105579;1303;22480;-83
2022/12/27 06:06:58;;;;;;;1.20;0.40;;;;;;;4.39;92.24;96806.23;105652;1303;23123;-82
2022/12/27 06:09:31;;;;;;;0.70;0.20;;;;;;;4.23;92.96;96806.27;105623;1304;22484;-82
2022/12/27 06:12:09;;;;;;;0.50;0.50;;;;;;;4.11;93.37;96808.03;98071;1304;5223301;-83
2022/12/27 06:14:43;;;;;;;0.30;0.30;;;;;;;4.10;93.88;96813.92;105559;1300;22519;-84
2022/12/27 06:17:27;;;;;;;0.30;0.20;;;;;;;4.11;94.67;96801.88;105562;1303;25074;-83
2022/12/27 06:19:59;;;;;;;1.00;0.70;;;;;;;4.06;95.54;96810.36;105579;1295;22520;-82
2022/12/27 06:22:30;;;;;;;1.00;0.80;;;;;;;4.04;95.77;96819.55;104168;1303;1843561;-83
2022/12/27 06:25:10;;;;;;;1.50;0.70;;;;;;;4.02;95.93;96832.27;105583;1303;22509;-83
2022/12/27 06:27:44;;;;;;;0.50;0.50;;;;;;;4.02;95.93;96821.48;105696;1303;22472;-85
2022/12/27 06:30:20;;;;;;;1.10;0.40;;;;;;;3.99;96.12;96837.99;104366;1303;1768452;-83
2022/12/27 06:32:53;;;;;;;0.80;0.60;;;;;;;3.95;96.03;96843.05;104272;1294;1759069;-82
2022/12/27 06:35:24;;;;;;;0.80;0.60;;;;;;;3.90;96.22;96852.94;105764;1304;24266;-82
2022/12/27 06:37:56;;;;;;;2.50;0.50;;;;;;;3.88;96.12;96865.98;105648;1303;22503;-82
2022/12/27 06:40:29;;;;;;;0.70;0.30;;;;;;;3.88;96.02;96863.23;102794;1295;5463122;-83
2022/12/27 06:43:00;;;;;;;1.90;0.70;;;;;;;3.88;96.03;96875.26;101897;1291;5137416;-84
2022/12/27 06:45:32;;;;;;;1.60;0.50;;;;;;;3.89;95.88;96868.66;105562;1303;22520;-83
2022/12/27 06:48:03;;;;;;;1.00;0.80;;;;;;;3.88;95.80;96868.80;105680;1303;23760;-82
2022/12/27 06:50:36;;;;;;;1.10;0.50;;;;;;;3.87;95.80;96880.89;105541;1303;67767;-83
2022/12/27 06:53:07;;;;;;;1.80;0.50;;;;;;;3.86;95.73;96899.30;105612;1303;69719;-83
2022/12/27 06:55:39;;;;;;;0.90;0.70;;;;;;;3.88;95.60;96887.63;105606;1298;24232;-83
2022/12/27 06:58:11;;;;;;;0.80;0.50;;;;;;;3.90;95.18;96897.73;105676;1301;22610;-83
2022/12/27 07:00:43;;;;;;;0.60;0.60;;;;;;;3.93;94.89;96920.98;104062;1310;2041619;-83
2022/12/27 07:03:18;;;;;;;1.20;0.70;;;;;;;3.93;94.85;96926.09;105510;1285;72702;-82
2022/12/27 07:05:49;;;;;;;1.10;0.70;;;;;;;3.89;94.83;96926.35;105652;1285;26768;-83
2022/12/27 07:08:20;;;;;;;1.10;0.70;;;;;;;3.87;94.91;96948.61;105583;1304;23893;-82
2022/12/27 07:10:53;;;;;;;0.70;0.60;;;;;;;3.86;94.82;96958.73;97680;1292;5469212;-85
2022/12/27 07:13:26;;;;;;;0.30;0.20;;;;;;;3.84;94.70;96964.34;105540;1293;59094;-84
2022/12/27 07:15:59;;;;;;;0.60;0.50;;;;;;;3.77;94.37;96981.14;105608;1296;22465;-83
2022/12/27 07:18:35;;;;;;;0.80;0.60;;;;;;;3.69;94.20;96995.99;105589;1286;23234;-83
2022/12/27 07:21:11;;;;;;;1.20;0.90;;;;;;;3.58;94.15;97029.22;104033;1294;2334423;-84
2022/12/27 07:23:45;;;;;;;2.40;1.00;;;;;;;3.48;94.44;97037.45;105684;1288;22531;-83
2022/12/27 07:26:19;;;;;;;1.40;0.90;;;;;;;3.42;94.40;97056.38;105596;1292;22506;-82
2022/12/27 07:28:53;;;;;;;1.00;0.70;;;;;;;3.37;94.19;97065.43;105728;1299;22464;-83
2022/12/27 07:31:28;;;;;;;1.40;0.60;;;;;;;3.19;94.04;97084.42;104443;1295;1770174;-84
2022/12/27 07:34:05;;;;;;;1.10;0.70;;;;;;;3.04;93.75;97092.05;105594;1291;22490;-84
2022/12/27 07:36:40;;;;;;;3.00;0.80;;;;;;;2.89;93.51;97094.41;105762;1292;22479;-83
2022/12/27 07:39:14;;;;;;;1.20;0.60;;;;;;;2.72;93.21;97110.49;105750;1294;22557;-83
2022/12/27 07:41:45;;;;;;;4.20;0.80;;;;;;;2.55;93.21;97102.11;102699;1292;2056772;-84
2022/12/27 07:44:17;;;;;;;1.10;0.40;;;;;;;2.29;93.19;97107.80;105793;1294;22555;-83
2022/12/27 07:46:48;;;;;;;1.60;0.60;;;;;;;2.13;93.40;97112.32;105806;1294;22478;-83
2022/12/27 07:49:20;;;;;;;1.30;0.50;;;;;;;2.09;94.02;97119.02;105757;1292;22466;-82
2022/12/27 07:51:51;;;;;;;2.30;0.80;;;;;;;1.91;94.71;97136.98;100965;1289;2121234;-83
2022/12/27 07:54:25;;;;;;;1.50;0.90;;;;;;;1.81;95.08;97150.34;105714;1289;24117;-83
2022/12/27 07:56:57;;;;;;;3.00;1.10;;;;;;;1.81;95.25;97153.92;105861;1285;22511;-83
2022/12/27 07:59:29;;;;;;;2.20;0.70;;;;;;;1.79;95.19;97154.77;105728;1294;22500;-83
2022/12/27 08:02:04;;;;;;;2.50;0.70;;;;;;;1.71;95.54;97156.55;104376;1294;1768963;-84
2022/12/27 08:04:38;;;;;;;1.40;0.40;;;;;;;1.59;95.82;97171.69;105767;1284;22462;-85
2022/12/27 08:07:16;;;;;;;2.50;1.10;;;;;;;1.52;96.44;97168.44;105765;1288;22720;-85
2022/12/27 08:09:52;;;;;;;2.40;1.20;;;;;;;1.47;96.51;97164.77;105741;1295;22485;-83
2022/12/27 08:12:27;;;;;;;3.70;1.20;;;;;;;1.46;96.57;97160.77;101456;1287;2064789;-83
2022/12/27 08:15:00;;;;;;;2.50;1.20;;;;;;;1.44;96.49;97162.30;105730;1287;22502;-83
2022/12/27 08:17:32;;;;;;;4.50;1.30;;;;;;;1.46;96.71;97174.95;105732;1288;22509;-83
2022/12/27 08:20:06;;;;;;;2.70;1.20;;;;;;;1.46;96.67;97185.92;105691;1288;22468;-86
2022/12/27 08:22:46;;;;;;;4.60;1.30;;;;;;;1.53;96.67;97189.18;98593;1289;7528670;-83
2022/12/27 08:25:18;;;;;;;1.40;0.90;;;;;;;1.63;96.51;97189.39;105600;1303;23767;-88
2022/12/27 08:27:50;;;;;;;1.90;0.70;;;;;;;1.69;96.50;97190.29;105625;1288;25244;-92
2022/12/27 08:30:23;;;;;;;2.40;0.90;;;;;;;1.64;96.46;97191.92;105771;1289;24257;-88
2022/12/27 08:32:54;;;;;;;1.70;0.70;;;;;;;1.59;96.70;97199.70;102791;1289;2329361;-88
2022/12/27 08:35:28;;;;;;;0.50;0.50;;;;;;;1.57;96.70;97205.34;105831;1302;23830;-87
2022/12/27 08:38:04;;;;;;;4.10;1.10;;;;;;;1.63;97.03;97200.57;105673;1304;22468;-89
2022/12/27 08:40:39;;;;;;;1.10;0.70;;;;;;;1.72;97.07;97205.93;105661;1303;22539;-87
2022/12/27 08:43:12;;;;;;;1.90;1.00;;;;;;;1.80;96.96;97216.02;104192;1303;1862018;-87
2022/12/27 08:45:44;;;;;;;2.10;1.10;;;;;;;1.92;96.89;97222.45;105669;1303;24227;-85
2022/12/27 08:48:18;;;;;;;3.70;1.40;;;;;;;2.03;96.71;97225.38;105656;1286;25258;-86
2022/12/27 08:50:50;;;;;;;1.80;0.80;;;;;;;2.13;96.58;97222.09;105709;1295;24498;-85
2022/12/27 08:53:22;;;;;;;2.90;1.60;;;;;;;2.17;96.17;97219.04;105643;1281;38405;-87
2022/12/27 08:56:00;;;;;;;4.10;1.40;;;;;;;2.19;95.88;97225.66;105879;1271;22495;-87
2022/12/27 08:58:32;;;;;;;4.10;2.00;;;;;;;2.20;95.94;97237.89;105841;1284;24118;-85
2022/12/27 09:01:11;;;;;;;3.50;1.70;;;;;;;2.24;95.87;97241.89;105756;1285;61015;-88
2022/12/27 09:03:46;;;;;;;7.30;2.40;;;;;;;2.27;95.23;97234.48;105839;1285;54966;-86
2022/12/27 09:06:21;;;;;;;6.70;1.90;;;;;;;2.29;94.63;97244.00;105729;1287;22510;-89
2022/12/27 09:08:58;;;;;;;8.00;2.90;;;;;;;2.27;93.39;97227.08;105947;1284;22474;-86
2022/12/27 09:11:34;;;;;;;5.20;1.50;;;;;;;2.23;92.24;97241.04;101248;1285;3366055;-85
2022/12/27 09:14:11;;;;;;;6.10;2.20;;;;;;;2.23;91.84;97239.27;105832;1289;22476;-86
2022/12/27 09:16:47;;;;;;;6.80;2.40;;;;;;;2.23;91.47;97230.91;105823;1285;25455;-84
2022/12/27 09:19:20;;;;;;;8.90;1.70;;;;;;;2.19;91.13;97234.06;105804;1289;23954;-85
2022/12/27 09:21:53;;;;;;;7.60;2.10;;;;;;;2.17;91.18;97241.73;101953;1282;1764211;-82
2022/12/27 09:24:29;;;;;;;7.10;1.40;;;;;;;2.14;91.22;97252.89;105806;1288;23618;-83
2022/12/27 09:27:04;;;;;;;7.40;2.70;;;;;;;2.15;90.36;97255.87;105828;1282;22462;-81
2022/12/27 09:29:37;;;;;;;8.00;2.40;;;;;;;2.25;90.18;97255.58;105674;1281;23565;-83
2022/12/27 09:32:13;;;;;;;6.70;2.60;;;;;;;2.36;89.94;97259.61;100431;1281;5337265;-83
2022/12/27 09:34:45;;;;;;;5.90;2.60;;;;;;;2.41;89.84;97260.97;105738;1283;22473;-82
2022/12/27 09:37:19;;;;;;;5.40;1.50;;;;;;;2.39;89.13;97262.38;105669;1284;22504;-81
2022/12/27 09:39:51;;;;;;;4.40;1.80;;;;;;;2.43;88.74;97265.23;105849;1275;22522;-79
2022/12/27 09:42:42;;;;;;;4.20;1.60;;;;;;;2.45;87.62;97260.02;105733;1289;79599;-82
2022/12/27 09:45:23;;;;;;;3.60;1.70;;;;;;;2.52;87.59;97272.13;105734;1287;25399;-82
2022/12/27 09:48:01;;;;;;;7.60;1.90;;;;;;;2.65;86.95;97263.42;105713;1303;27217;-80
2022/12/27 09:50:40;;;;;;;5.80;2.20;;;;;;;2.68;86.34;97279.89;105741;1295;24275;-82
2022/12/27 09:53:22;;;;;;;3.90;1.80;;;;;;;2.59;85.81;97279.09;102553;1304;2328518;-83
2022/12/27 09:55:55;;;;;;;;;;;;;;;2.53;85.50;97285.89;105761;1303;22440;-81
2022/12/27 09:58:41;;;;;;;6.50;1.80;;;;;;;2.68;86.35;97290.27;105708;1300;23817;-82
2022/12/27 10:01:34;;;;;;;7.30;3.10;;;;;;;2.71;85.09;97290.46;105767;1285;50810;-81
2022/12/27 10:04:16;;;;;;;7.00;2.20;;;;;;;2.68;85.13;97293.75;104400;1289;1843392;-80
2022/12/27 10:07:05;;;;;;;3.10;1.60;;;;;;;2.72;84.56;97289.29;105873;1284;22719;-81
2022/12/27 10:09:49;;;;;;;7.40;1.80;;;;;;;2.76;83.93;97296.55;105759;1296;22534;-80
2022/12/27 10:12:52;;;;;;;6.20;1.70;;;;;;;2.85;83.84;97295.77;104292;1284;1768346;-87
2022/12/27 10:15:31;;;;;;;6.70;2.10;;;;;;;2.78;82.80;97296.49;105743;1281;22536;-87
2022/12/27 10:18:17;;;;;;;4.20;1.10;;;;;;;2.66;81.68;97309.02;105600;1303;22504;-87
2022/12/27 10:21:02;;;;;;;5.30;2.10;;;;;;;2.66;81.93;97316.86;105555;1303;22513;-87
2022/12/27 10:23:41;;;;;;;3.50;1.50;;;;;;;2.73;82.08;97312.48;101506;1303;5460069;-90
2022/12/27 10:26:24;;;;;;;4.70;1.60;;;;;;;2.80;81.92;97320.23;105741;1294;24283;-91
2022/12/27 10:29:01;;;;;;;6.90;2.30;;;;;;;2.83;82.37;97313.83;105658;1288;24999;-87
2022/12/27 10:31:41;;;;;;;2.90;1.70;;;;;;;2.83;82.57;97304.13;105518;1278;114323;-87
2022/12/27 10:34:22;;;;;;;5.30;1.30;;;;;;;2.68;81.92;97304.57;104225;1282;1896648;-91
2022/12/27 10:36:55;;;;;;;5.60;2.20;;;;;;;2.52;81.48;97298.10;105718;1284;22504;-87
2022/12/27 10:39:35;;;;;;;5.90;2.70;;;;;;;2.53;82.16;97309.01;105653;1289;22478;-87
2022/12/27 10:42:18;;;;;;;6.30;2.60;;;;;;;2.85;83.40;97314.56;93130;1295;7377365;-89
2022/12/27 10:44:52;;;;;;;5.40;3.00;;;;;;;3.13;83.77;97308.23;105611;1288;22509;-89
2022/12/27 10:47:31;;;;;;;4.40;2.40;;;;;;;3.29;83.35;97309.98;105748;1285;24298;-87
2022/12/27 10:50:14;;;;;;;7.00;3.00;;;;;;;3.40;83.12;97305.73;105828;1303;22462;-93
2022/12/27 10:52:46;;;;;;;7.20;2.50;;;;;;;3.64;83.45;97304.42;99783;1281;5440683;-90
2022/12/27 10:55:35;;;;;;;8.20;2.40;;;;;;;3.85;82.61;97302.06;105573;1283;22510;-90
2022/12/27 10:58:43;;;;;;;6.20;2.50;;;;;;;3.80;81.22;97302.11;105663;1282;22499;-88
2022/12/27 11:01:25;;;;;;;4.20;1.70;;;;;;;3.75;81.13;97305.88;105618;1303;22477;-92
2022/12/27 11:04:23;;;;;;;7.60;2.30;;;;;;;3.52;79.34;97300.10;104391;1295;1873284;-90
2022/12/27 11:07:13;;;;;;;6.60;2.90;;;;;;;3.37;79.69;97297.98;105784;1303;26127;-92
2022/12/27 11:09:46;;;;;;;5.90;2.50;;;;;;;3.27;80.02;97301.34;105862;1303;22509;-90
2022/12/27 11:12:22;;;;;;;7.40;2.30;;;;;;;3.35;80.37;97300.73;105627;1303;45333;-92
2022/12/27 11:15:00;;;;;;;6.60;2.30;;;;;;;3.36;79.92;97299.83;105693;1297;22508;-90
2022/12/27 11:17:39;;;;;;;3.60;1.40;;;;;;;3.30;79.36;97303.52;105652;1303;22511;-91
2022/12/27 11:20:22;;;;;;;6.60;2.10;;;;;;;3.14;79.48;97309.54;105618;1303;22560;-88
2022/12/27 11:22:58;;;;;;;4.40;1.70;;;;;;;3.10;79.46;97310.30;101667;1282;5285811;-90
2022/12/27 11:25:31;;;;;;;6.80;1.60;;;;;;;3.02;79.30;97312.80;105661;1282;22477;-87
2022/12/27 11:28:06;;;;;;;6.40;1.90;;;;;;;2.99;79.25;97312.04;105717;1302;22505;-89
2022/12/27 11:30:51;;;;;;;2.80;1.30;;;;;;;2.94;79.36;97312.98;105652;1289;22649;-92
2022/12/27 11:33:36;;;;;;;6.80;2.40;;;;;;;3.03;79.29;97307.48;100666;1302;4685229;-85
2022/12/27 11:36:10;;;;;;;7.20;2.10;;;;;;;3.13;79.13;97307.01;105599;1293;22624;-87
2022/12/27 11:38:47;;;;;;;6.90;2.40;;;;;;;3.21;78.49;97303.30;105617;1302;22480;-89
2022/12/27 11:41:30;;;;;;;6.70;1.80;;;;;;;3.14;77.70;97301.15;105650;1295;23242;-89
2022/12/27 11:44:10;;;;;;;5.40;1.20;;;;;;;3.10;78.13;97298.33;105778;1295;25031;-92
2022/12/27 11:46:49;;;;;;;6.30;1.00;;;;;;;3.05;77.86;97297.70;105923;1296;22474;-93
2022/12/27 11:49:23;;;;;;;9.70;2.50;;;;;;;3.04;77.21;97293.13;105653;1303;22466;-91
2022/12/27 11:52:28;;;;;;;5.70;2.00;;;;;;;3.15;77.58;97295.14;101971;1303;5029852;-92
2022/12/27 11:55:31;;;;;;;4.50;1.20;;;;;;;3.32;78.16;97287.25;105842;1292;22465;-93
2022/12/27 11:58:27;;;;;;;9.70;1.90;;;;;;;3.47;77.59;97288.44;105673;1303;24234;-88
2022/12/27 12:01:07;;;;;;;6.50;1.80;;;;;;;3.64;77.29;97290.20;105675;1295;22720;-92
2022/12/27 12:04:07;;;;;;;5.20;1.20;;;;;;;3.83;75.83;97280.79;101119;1280;2524990;-91
2022/12/27 12:06:57;;;;;;;4.00;1.30;;;;;;;3.97;73.34;97291.38;105693;1303;22506;-90
2022/12/27 12:09:54;;;;;;;6.90;1.30;;;;;;;4.04;71.66;97293.71;105648;1278;26477;-87
2022/12/27 12:12:56;;;;;;;5.30;1.60;;;;;;;4.11;70.77;97293.47;105750;1303;31051;-87
2022/12/27 12:15:51;;;;;;;5.30;1.70;;;;;;;4.24;71.76;97295.27;105647;1295;22485;-87
2022/12/27 12:18:59;;;;;;;4.50;1.50;;;;;;;4.38;71.70;97291.58;106027;1295;22569;-91
2022/12/27 12:21:38;;;;;;;3.30;1.00;;;;;;;4.29;69.75;97293.25;106017;1303;25447;-89
2022/12/27 12:24:42;;;;;;;5.70;1.90;;;;;;;4.08;69.25;97301.92;104534;1303;1761592;-88
2022/12/27 12:27:30;;;;;;;6.40;1.40;;;;;;;4.10;70.37;97301.88;105602;1289;22528;-90
2022/12/27 12:30:23;;;;;;;3.30;1.20;;;;;;;4.20;68.65;97294.05;105607;1285;25392;-86
2022/12/27 12:33:10;;;;;;;2.60;1.20;;;;;;;4.03;68.06;97298.11;101873;1284;3432869;-88
2022/12/27 12:35:58;;;;;;;5.10;1.50;;;;;;;3.82;68.05;97305.20;105780;1303;24004;-85
2022/12/27 12:38:43;;;;;;;2.90;1.30;;;;;;;3.75;68.48;97295.77;105674;1303;22558;-86
2022/12/27 12:41:38;;;;;;;6.10;1.90;;;;;;;3.67;69.00;97295.96;105694;1295;22469;-86
2022/12/27 12:44:42;;;;;;;4.10;1.50;;;;;;;3.53;68.36;97296.06;105642;1303;48859;-87
2022/12/27 12:47:27;;;;;;;3.00;1.00;;;;;;;3.43;69.22;97303.81;105657;1302;23088;-87
2022/12/27 12:50:20;;;;;;;4.40;1.70;;;;;;;3.34;69.08;97305.65;105705;1287;22492;-85
2022/12/27 12:53:21;;;;;;;5.40;2.20;;;;;;;3.27;69.22;97309.72;105570;1303;26607;-84
2022/12/27 12:56:10;;;;;;;3.50;1.20;;;;;;;3.21;69.26;97315.39;105669;1289;22625;-84
2022/12/27 12:58:54;;;;;;;5.10;1.70;;;;;;;3.16;68.62;97304.65;105621;1287;22469;-83
2022/12/27 13:01:45;;;;;;;2.90;1.10;;;;;;;3.09;68.74;97302.31;105655;1285;22468;-83
2022/12/27 13:04:44;;;;;;;3.20;1.20;;;;;;;3.05;68.50;97313.88;105636;1302;24182;-87
2022/12/27 13:07:39;;;;;;;3.50;1.60;;;;;;;3.03;68.51;97312.77;105702;1289;22477;-87
2022/12/27 13:10:34;;;;;;;3.20;1.20;;;;;;;3.00;68.99;97309.08;105665;1288;22516;-84
2022/12/27 13:13:15;;;;;;;4.00;1.00;;;;;;;2.97;68.61;97298.95;102956;1272;2004573;-86
2022/12/27 13:16:02;;;;;;;4.20;1.60;;;;;;;2.96;67.95;97308.52;105761;1278;22457;-86
2022/12/27 13:18:47;;;;;;;3.50;1.40;;;;;;;2.95;68.18;97312.73;105575;1303;22497;-90
2022/12/27 13:21:30;;;;;;;5.40;1.50;;;;;;;2.94;68.97;97311.91;105627;1288;23073;-86
2022/12/27 13:24:12;;;;;;;3.40;1.10;;;;;;;2.93;68.79;97313.23;104289;1301;1810258;-87
2022/12/27 13:26:55;;;;;;;5.10;1.90;;;;;;;2.92;68.97;97313.84;105567;1275;23901;-87
2022/12/27 13:30:01;;;;;;;3.20;1.30;;;;;;;2.94;69.62;97314.17;105646;1272;22519;-86
2022/12/27 13:32:57;;;;;;;5.00;2.70;;;;;;;2.90;69.77;97319.65;104380;1303;1585694;-86
2022/12/27 13:35:43;;;;;;;3.50;1.50;;;;;;;2.89;69.90;97322.12;105706;1303;23475;-85
2022/12/27 13:38:31;;;;;;;3.70;1.40;;;;;;;2.88;69.83;97330.99;105628;1302;22516;-87
2022/12/27 13:41:22;;;;;;;3.50;1.50;;;;;;;2.88;70.19;97325.44;105764;1279;23457;-87
2022/12/27 13:44:14;;;;;;;3.60;1.90;;;;;;;2.87;70.04;97321.02;104665;1287;1770369;-85
2022/12/27 13:47:00;;;;;;;4.90;2.00;;;;;;;2.86;69.92;97319.24;105853;1295;22548;-86
2022/12/27 13:50:03;;;;;;;3.70;1.50;;;;;;;2.87;70.35;97318.15;105785;1293;22477;-86
2022/12/27 13:52:57;;;;;;;2.80;1.40;;;;;;;2.88;70.54;97317.63;105204;1300;1902343;-86
2022/12/27 13:55:51;;;;;;;2.10;1.40;;;;;;;2.85;70.75;97322.73;105591;1303;23146;-86
2022/12/27 13:58:48;;;;;;;4.40;2.20;;;;;;;2.82;70.57;97321.65;105699;1303;22512;-86
2022/12/27 14:01:46;;;;;;;4.10;1.80;;;;;;;2.83;70.57;97325.02;105726;1298;22473;-87
2022/12/27 14:04:52;;;;;;;4.00;1.60;;;;;;;2.82;70.44;97325.55;102699;1302;2065841;-88
2022/12/27 14:07:42;;;;;;;5.30;2.30;;;;;;;2.80;70.71;97333.84;105692;1303;22468;-86
2022/12/27 14:10:29;;;;;;;5.10;2.40;;;;;;;2.79;70.90;97338.33;105724;1286;22517;-86
2022/12/27 14:13:06;;;;;;;4.40;2.20;;;;;;;2.78;71.30;97338.65;102852;1295;2273336;-85